Time;durP1;ratioP1;P1;durP2;ratioP2;P2;SDS_P1;SDS_P2;PMS_P1;PMS_P2;Temp;Humidity;BMP_temperature;BMP_pressure;BME280_temperature;BME280_humidity;BME280_pressure;Samples;Min_cycle;Max_cycle;Signal;HPM_P1;HPM_P2
2022/10/27 00:01:48;;;;;;;20.63;11.70;;;10.80;99.90;;;10.82;98.25;98825.81;5034882;28;21010;-72
2022/10/27 00:04:16;;;;;;;15.03;11.70;;;10.80;99.90;;;10.73;99.16;98817.88;5041229;28;20865;-74
2022/10/27 00:06:43;;;;;;;18.47;12.03;;;10.70;99.90;;;10.71;99.62;98830.75;5053143;28;20490;-74
2022/10/27 00:09:10;;;;;;;11.40;10.30;;;10.70;99.90;;;10.77;97.95;98829.13;5048516;28;20510;-72
2022/10/27 00:11:37;;;;;;;12.57;10.77;;;10.60;99.90;;;10.78;97.36;98825.41;5045453;28;20520;-73
2022/10/27 00:14:06;;;;;;;15.43;11.10;;;10.60;99.90;;;10.76;97.31;98822.88;5041806;28;20473;-74
2022/10/27 00:16:33;;;;;;;14.43;11.43;;;10.60;99.90;;;10.72;96.53;98813.50;5048465;28;20560;-74
2022/10/27 00:19:01;;;;;;;19.93;12.33;;;10.60;99.90;;;10.72;96.61;98816.19;5040705;28;20457;-74
2022/10/27 00:21:28;;;;;;;16.60;12.30;;;10.60;99.90;;;10.68;96.70;98816.78;5061730;28;20446;-71
2022/10/27 00:23:56;;;;;;;14.20;11.67;;;10.60;99.90;;;10.68;97.45;98817.59;5049736;28;21150;-72
2022/10/27 00:26:23;;;;;;;13.67;11.37;;;10.60;99.90;;;10.55;96.58;98810.25;5047252;28;20450;-74
2022/10/27 00:28:50;;;;;;;12.83;10.43;;;10.50;99.90;;;10.52;97.12;98820.59;5044818;28;20464;-73
2022/10/27 00:31:21;;;;;;;14.47;10.60;;;10.40;99.90;;;10.46;97.03;98816.81;5046960;28;20508;-73
2022/10/27 00:33:50;;;;;;;11.40;10.27;;;10.40;99.90;;;10.51;96.80;98825.19;5050760;28;20458;-73
2022/10/27 00:36:19;;;;;;;14.63;11.00;;;10.40;99.90;;;10.38;97.08;98820.44;5062326;28;20493;-73
2022/10/27 00:38:46;;;;;;;14.20;12.23;;;10.40;99.90;;;10.38;97.41;98833.97;5041076;28;20482;-73
2022/10/27 00:41:27;;;;;;;15.30;12.43;;;10.40;99.90;;;10.32;96.79;98834.75;5043299;28;20453;-77
2022/10/27 00:43:55;;;;;;;13.17;11.03;;;10.20;99.90;;;10.22;97.38;98832.38;5038988;28;20535;-74
2022/10/27 00:46:31;;;;;;;13.43;11.90;;;10.10;99.90;;;10.19;98.31;98830.88;5041939;28;20460;-74
2022/10/27 00:49:03;;;;;;;14.20;11.13;;;10.10;99.90;;;10.29;97.62;98837.84;5045310;28;20456;-74
2022/10/27 00:51:30;;;;;;;13.03;10.53;;;10.20;99.90;;;10.20;98.50;98835.25;5060865;28;20456;-73
2022/10/27 00:53:58;;;;;;;14.07;11.43;;;10.20;99.90;;;10.26;98.99;98843.63;5053323;28;20462;-72
2022/10/27 00:56:26;;;;;;;11.63;10.53;;;10.20;99.90;;;10.20;97.77;98837.13;5041369;28;20453;-72
2022/10/27 00:58:53;;;;;;;11.87;10.67;;;10.10;99.90;;;10.15;98.27;98847.66;5033420;28;20990;-74
2022/10/27 01:01:21;;;;;;;14.87;11.20;;;10.00;99.90;;;10.13;98.90;98845.16;5035858;28;20469;-73
2022/10/27 01:03:49;;;;;;;12.20;10.97;;;10.00;99.90;;;10.18;99.47;98850.00;5053905;28;20489;-73
2022/10/27 01:06:17;;;;;;;16.70;11.20;;;10.10;99.90;;;10.14;99.37;98852.25;5047491;28;20454;-73
2022/10/27 01:08:45;;;;;;;14.60;11.80;;;10.10;99.90;;;10.21;98.23;98847.72;5050383;28;20590;-73
2022/10/27 01:11:12;;;;;;;13.83;11.37;;;10.10;99.90;;;10.23;97.72;98849.41;5057377;28;20486;-72
2022/10/27 01:13:39;;;;;;;11.73;10.53;;;10.10;99.90;;;10.21;97.98;98852.31;5054678;28;20461;-71
2022/10/27 01:16:22;;;;;;;12.37;11.27;;;10.10;99.90;;;10.16;97.84;98852.88;5050529;28;21031;-72
2022/10/27 01:19:04;;;;;;;13.40;11.93;;;10.10;99.90;;;10.08;97.90;98850.28;5045124;28;20448;-74
2022/10/27 01:21:54;;;;;;;13.03;11.27;;;10.10;99.90;;;10.15;98.13;98853.91;5045655;28;20461;-73
2022/10/27 01:24:43;;;;;;;13.43;10.80;;;10.10;99.90;;;9.79;97.05;98800.81;5043957;28;20479;-73
2022/10/27 01:27:59;;;;;;;12.93;10.57;;;10.10;99.90;;;10.23;97.31;98849.41;5042938;28;21603;-73
2022/10/27 01:30:29;;;;;;;11.77;10.33;;;10.10;99.90;;;10.20;96.35;98842.53;5040921;28;20473;-73
2022/10/27 01:33:07;;;;;;;11.17;9.83;;;10.10;99.90;;;10.14;96.96;98837.88;5041234;28;20896;-72
2022/10/27 01:35:44;;;;;;;14.60;11.10;;;10.10;99.90;;;10.12;96.10;98842.66;5045053;28;20464;-72
2022/10/27 01:38:17;;;;;;;12.40;10.27;;;10.00;99.90;;;10.15;97.40;98848.50;5033831;28;20451;-73
2022/10/27 01:40:52;;;;;;;12.10;10.80;;;10.00;99.90;;;10.17;96.27;98849.16;5034888;28;20607;-71
2022/10/27 01:43:24;;;;;;;13.60;10.63;;;10.00;99.90;;;10.15;96.38;98845.81;5038760;28;20595;-72
2022/10/27 01:45:52;;;;;;;11.43;10.27;;;10.00;99.90;;;10.14;96.76;98846.00;5057759;28;20461;-72
2022/10/27 01:48:22;;;;;;;12.70;10.80;;;10.00;99.90;;;10.05;96.35;98845.28;5038877;28;20457;-73
2022/10/27 01:50:49;;;;;;;13.40;9.83;;;9.90;99.90;;;9.64;96.58;98809.78;5039837;28;20461;-72
2022/10/27 01:53:16;;;;;;;14.73;10.67;;;9.80;99.90;;;9.97;97.75;98856.22;5058629;28;20474;-73
2022/10/27 01:55:58;;;;;;;12.77;9.80;;;9.80;99.90;;;9.94;97.72;98859.31;5041252;28;20454;-72
2022/10/27 01:58:48;;;;;;;12.37;10.10;;;9.70;99.90;;;9.94;96.64;98856.59;5035836;28;20465;-73
2022/10/27 02:01:44;;;;;;;12.40;9.37;;;9.70;99.90;;;9.98;96.78;98849.78;5034140;28;20464;-74
2022/10/27 02:04:21;;;;;;;13.63;10.40;;;9.80;99.90;;;9.96;96.48;98862.66;5037092;28;20475;-72
2022/10/27 02:06:57;;;;;;;11.13;9.93;;;9.80;99.90;;;9.91;96.57;98858.63;5042141;28;20540;-73
2022/10/27 02:09:35;;;;;;;12.60;10.73;;;9.70;99.90;;;9.76;97.55;98855.13;5036111;28;20463;-72
2022/10/27 02:12:08;;;;;;;12.20;11.10;;;9.60;99.90;;;9.82;97.62;98849.00;5036261;28;20954;-73
2022/10/27 02:14:37;;;;;;;12.43;10.10;;;9.60;99.90;;;9.81;97.54;98863.53;5033762;28;20464;-72
2022/10/27 02:17:06;;;;;;;13.70;11.00;;;9.70;99.90;;;9.62;98.06;98854.16;5039989;28;20927;-72
2022/10/27 02:19:38;;;;;;;14.50;11.60;;;9.50;99.90;;;9.40;99.65;98851.41;5065179;28;20461;-71
2022/10/27 02:22:06;;;;;;;12.27;10.57;;;9.40;99.90;;;9.64;100.00;98857.50;5053554;28;20957;-71
2022/10/27 02:24:35;;;;;;;13.80;11.70;;;9.50;99.90;;;9.69;99.32;98860.44;5049258;28;20539;-72
2022/10/27 02:27:10;;;;;;;12.20;10.93;;;9.60;99.90;;;9.55;98.91;98859.47;5029782;28;20446;-72
2022/10/27 02:29:42;;;;;;;12.63;10.90;;;9.50;99.90;;;9.60;98.97;98856.22;5071918;28;21072;-72
2022/10/27 02:32:14;;;;;;;11.30;10.10;;;9.50;99.90;;;9.60;99.05;98856.22;5041260;28;20620;-71
2022/10/27 02:34:44;;;;;;;11.87;10.47;;;9.40;99.90;;;9.42;99.49;98845.81;5064748;28;20463;-71
2022/10/27 02:37:20;;;;;;;12.37;10.77;;;9.30;99.90;;;9.47;99.03;98852.31;5052409;28;20464;-73
2022/10/27 02:39:47;;;;;;;12.50;10.10;;;9.30;99.90;;;9.63;98.14;98856.69;5049565;28;20505;-71
2022/10/27 02:42:15;;;;;;;11.80;10.60;;;9.40;99.90;;;9.72;98.04;98864.66;5049578;28;21064;-73
2022/10/27 02:44:42;;;;;;;11.47;10.37;;;9.50;99.90;;;9.62;96.90;98846.06;5049881;28;20990;-72
2022/10/27 02:47:09;;;;;;;11.00;9.90;;;9.60;99.90;;;8.86;97.29;98747.38;5057493;28;20474;-72
2022/10/27 02:49:36;;;;;;;13.30;10.67;;;9.50;99.90;;;9.50;97.87;98872.69;5042627;28;20504;-73
2022/10/27 02:52:05;;;;;;;11.23;10.00;;;9.40;99.90;;;9.45;97.93;98875.09;5046493;28;20541;-73
2022/10/27 02:54:33;;;;;;;10.97;9.87;;;9.30;99.90;;;9.49;97.60;98871.03;5040164;28;20466;-71
2022/10/27 02:57:00;;;;;;;15.83;9.70;;;9.30;99.90;;;9.55;97.62;98867.56;5044334;28;20465;-70
2022/10/27 02:59:28;;;;;;;11.67;8.83;;;9.40;99.90;;;9.50;97.13;98870.00;5039939;28;20459;-72
2022/10/27 03:01:55;;;;;;;11.47;9.87;;;9.40;99.90;;;9.42;97.42;98873.63;5040708;28;20453;-73
2022/10/27 03:04:22;;;;;;;11.40;9.03;;;9.30;99.90;;;9.26;97.35;98855.75;5041555;28;20479;-72
2022/10/27 03:06:49;;;;;;;9.73;8.80;;;9.20;99.90;;;8.82;98.86;98778.44;5042427;28;20552;-71
2022/10/27 03:09:18;;;;;;;10.50;9.53;;;9.20;99.90;;;9.41;98.44;98860.31;5043631;28;20520;-73
2022/10/27 03:11:45;;;;;;;12.13;8.80;;;9.20;99.90;;;9.26;97.58;98844.97;5038421;28;20466;-72
2022/10/27 03:14:12;;;;;;;10.77;8.40;;;9.20;99.90;;;9.31;98.34;98856.03;5050234;28;20441;-70
2022/10/27 03:16:39;;;;;;;11.30;9.17;;;9.10;99.90;;;9.12;98.92;98853.91;5059875;28;20459;-73
2022/10/27 03:19:07;;;;;;;12.37;10.27;;;9.00;99.90;;;9.10;99.10;98850.56;5052231;28;20553;-72
2022/10/27 03:21:34;;;;;;;11.47;10.30;;;9.00;99.90;;;9.12;99.38;98864.69;5041837;28;20466;-72
2022/10/27 03:24:01;;;;;;;15.13;9.77;;;9.10;99.90;;;9.24;98.73;98865.06;5044228;28;20536;-72
2022/10/27 03:26:30;;;;;;;10.53;9.53;;;9.10;99.90;;;9.18;98.41;98866.66;5039304;28;20474;-72
2022/10/27 03:28:57;;;;;;;11.00;9.90;;;9.20;99.90;;;9.12;98.69;98859.28;5069408;28;20464;-72
2022/10/27 03:31:25;;;;;;;13.83;9.47;;;9.10;99.90;;;9.11;98.51;98866.56;5038041;28;20870;-73
2022/10/27 03:33:52;;;;;;;14.00;10.10;;;9.00;99.90;;;9.05;98.53;98865.44;5050798;28;20531;-73
2022/10/27 03:36:19;;;;;;;12.70;10.10;;;9.00;99.90;;;9.05;99.08;98865.44;5052213;28;20459;-72
2022/10/27 03:38:47;;;;;;;13.40;10.07;;;8.90;99.90;;;9.16;98.13;98874.91;5047201;28;20465;-73
2022/10/27 03:41:14;;;;;;;10.27;9.17;;;9.00;99.90;;;9.23;98.05;98866.94;5043944;28;20509;-72
2022/10/27 03:43:42;;;;;;;11.77;10.60;;;9.00;99.90;;;9.19;97.52;98881.81;5044173;28;20475;-71
2022/10/27 03:46:10;;;;;;;11.80;9.97;;;9.00;99.90;;;9.03;98.43;98877.41;5051382;28;20554;-72
2022/10/27 03:48:37;;;;;;;14.13;11.33;;;8.90;99.90;;;8.94;98.61;98863.19;5040228;28;20495;-73
2022/10/27 03:51:05;;;;;;;16.37;11.57;;;8.80;99.90;;;8.99;99.26;98868.03;5049985;28;20466;-73
2022/10/27 03:53:32;;;;;;;12.40;10.60;;;8.80;99.90;;;9.03;98.51;98878.28;5052661;28;20465;-72
2022/10/27 03:55:59;;;;;;;11.70;10.20;;;8.80;99.90;;;9.03;97.65;98872.88;5044655;28;20471;-72
2022/10/27 03:58:26;;;;;;;10.47;9.53;;;8.80;99.90;;;9.07;97.44;98874.19;5042771;28;20519;-72
2022/10/27 04:00:55;;;;;;;10.50;9.40;;;8.80;99.90;;;9.09;97.35;98875.84;5062003;28;20511;-73
2022/10/27 04:03:22;;;;;;;12.00;10.10;;;8.90;99.90;;;9.21;96.71;98879.75;5046511;28;20503;-74
2022/10/27 04:05:50;;;;;;;10.17;9.17;;;9.00;99.90;;;9.06;96.77;98872.50;5035533;28;20495;-73
2022/10/27 04:08:17;;;;;;;10.27;9.27;;;9.00;99.90;;;9.00;97.54;98873.22;5051649;28;20458;-73
2022/10/27 04:10:46;;;;;;;13.03;10.17;;;9.00;99.90;;;9.05;97.83;98880.75;5057372;28;20454;-72
2022/10/27 04:13:13;;;;;;;11.40;9.57;;;9.00;99.90;;;8.95;97.79;98881.03;5053506;28;20446;-73
2022/10/27 04:15:40;;;;;;;15.90;10.73;;;8.90;99.90;;;8.99;97.49;98892.28;5042217;28;21004;-72
2022/10/27 04:18:10;;;;;;;10.70;9.63;;;8.90;99.90;;;8.95;97.28;98878.34;5052562;28;20460;-74
2022/10/27 04:20:37;;;;;;;13.33;9.90;;;8.80;99.90;;;8.86;97.57;98884.81;5067626;28;20502;-72
2022/10/27 04:23:05;;;;;;;12.07;10.10;;;8.70;99.90;;;8.89;98.65;98887.16;5068496;28;20525;-72
2022/10/27 04:25:32;;;;;;;12.50;10.13;;;8.80;99.90;;;8.75;98.04;98881.56;5061446;28;20563;-70
2022/10/27 04:28:02;;;;;;;12.70;9.80;;;8.80;99.90;;;8.63;98.76;98872.25;5064456;28;21235;-73
2022/10/27 04:30:30;;;;;;;10.17;9.10;;;8.70;99.90;;;8.69;99.55;98887.66;5045953;28;20500;-74
2022/10/27 04:32:57;;;;;;;10.23;9.20;;;8.70;99.90;;;8.67;99.90;98884.31;5038806;28;20512;-74
2022/10/27 04:35:26;;;;;;;13.97;9.63;;;8.80;99.90;;;8.70;99.11;98889.34;5044638;28;20446;-71
2022/10/27 04:37:56;;;;;;;14.07;11.33;;;8.80;99.90;;;8.74;99.10;98887.97;5066613;28;20460;-71
2022/10/27 04:40:23;;;;;;;11.00;9.47;;;8.80;99.90;;;8.79;98.34;98882.88;5051622;28;20471;-68
2022/10/27 04:42:50;;;;;;;12.47;9.43;;;8.70;99.90;;;8.71;97.83;98895.56;5054759;28;20477;-67
2022/10/27 04:45:18;;;;;;;11.70;9.60;;;8.80;99.90;;;8.84;97.94;98892.25;5051873;28;20483;-68
2022/10/27 04:47:45;;;;;;;11.13;9.00;;;8.70;99.90;;;8.84;97.52;98890.41;5046478;28;20450;-68
2022/10/27 04:50:13;;;;;;;13.60;9.87;;;8.70;99.90;;;8.78;97.62;98891.97;5035467;28;20512;-68
2022/10/27 04:52:43;;;;;;;10.87;9.77;;;8.70;99.90;;;8.68;98.19;98891.38;5057108;28;20948;-69
2022/10/27 04:55:10;;;;;;;12.77;10.37;;;8.70;99.90;;;8.71;97.78;98885.63;5053148;28;20956;-69
2022/10/27 04:57:37;;;;;;;12.77;9.57;;;8.70;99.90;;;8.75;96.70;98897.72;5063966;28;20441;-68
2022/10/27 05:00:07;;;;;;;13.20;11.30;;;8.70;99.90;;;8.72;97.50;98884.63;5067393;28;20457;-69
2022/10/27 05:02:34;;;;;;;11.13;9.97;;;8.70;99.90;;;8.71;97.78;98892.88;5044591;28;20450;-69
2022/10/27 05:05:01;;;;;;;11.37;9.50;;;8.60;99.90;;;8.70;97.01;98891.22;5046764;28;20480;-69
2022/10/27 05:07:28;;;;;;;12.07;8.30;;;8.70;99.90;;;8.76;96.46;98898.56;5040745;28;20846;-68
2022/10/27 05:09:57;;;;;;;11.10;9.13;;;8.60;99.90;;;8.75;96.92;98886.97;5042027;28;20495;-69
2022/10/27 05:12:24;;;;;;;12.80;9.73;;;8.60;99.90;;;8.63;96.98;98899.19;5039776;28;20461;-76
2022/10/27 05:14:51;;;;;;;10.93;9.10;;;8.60;99.90;;;8.69;97.21;98897.63;5035961;28;20483;-72
2022/10/27 05:17:19;;;;;;;13.57;9.50;;;8.50;99.90;;;8.64;96.78;98884.69;5031446;28;20459;-75
2022/10/27 05:19:47;;;;;;;11.53;9.03;;;8.60;99.90;;;8.65;97.74;98889.06;5028830;28;20463;-76
2022/10/27 05:22:14;;;;;;;14.20;8.90;;;8.60;99.90;;;8.66;97.64;98896.13;5052607;28;20548;-71
2022/10/27 05:24:43;;;;;;;12.20;9.00;;;8.50;99.90;;;8.61;97.47;98868.91;5028517;28;20866;-69
2022/10/27 05:27:11;;;;;;;12.50;9.67;;;8.60;99.90;;;8.83;98.16;98887.88;5039713;28;20462;-70
2022/10/27 05:29:39;;;;;;;10.83;8.60;;;8.70;99.90;;;8.77;97.50;98887.59;5039697;28;20868;-73
2022/10/27 05:32:06;;;;;;;11.27;9.00;;;8.60;99.90;;;8.71;96.68;98885.63;5040510;28;20463;-71
2022/10/27 05:34:34;;;;;;;13.30;9.73;;;8.70;99.90;;;8.55;98.23;98875.84;5038185;28;20484;-71
2022/10/27 05:37:01;;;;;;;11.17;9.90;;;8.70;99.90;;;8.81;99.29;98890.78;5042281;28;20463;-72
2022/10/27 05:39:28;;;;;;;15.97;10.00;;;8.80;99.90;;;8.69;98.13;98828.38;5041726;28;20467;-75
2022/10/27 05:41:55;;;;;;;15.80;9.50;;;8.90;99.90;;;8.99;97.27;98876.94;5038901;28;20470;-71
2022/10/27 05:44:24;;;;;;;10.13;9.13;;;9.00;99.90;;;9.07;97.27;98889.50;5041744;28;20510;-71
2022/10/27 05:46:51;;;;;;;11.63;9.07;;;9.00;99.90;;;8.99;96.43;98890.41;5038586;28;20468;-71
2022/10/27 05:49:19;;;;;;;14.73;9.30;;;9.00;99.90;;;8.89;97.82;98892.56;5049226;28;20516;-73
2022/10/27 05:51:46;;;;;;;11.43;9.47;;;9.00;99.90;;;8.94;97.83;98890.16;5050569;28;20548;-71
2022/10/27 05:54:13;;;;;;;14.63;9.80;;;9.00;99.90;;;8.92;97.53;98890.31;5056886;28;20474;-70
2022/10/27 05:56:41;;;;;;;12.70;9.47;;;9.00;99.90;;;8.83;97.10;98888.75;5039595;28;20486;-71
2022/10/27 05:59:08;;;;;;;9.70;8.70;;;8.90;99.90;;;8.96;97.54;98885.41;5036751;28;21124;-78
2022/10/27 06:01:36;;;;;;;12.03;9.30;;;8.90;99.90;;;8.81;97.19;98893.47;5035158;28;20470;-72
2022/10/27 06:04:04;;;;;;;13.93;9.50;;;8.90;99.90;;;8.90;96.98;98889.66;5039237;28;20868;-71
2022/10/27 06:06:31;;;;;;;10.73;8.73;;;8.90;99.90;;;8.90;96.76;98896.94;5043207;28;21026;-70
2022/10/27 06:08:58;;;;;;;10.03;9.07;;;8.90;99.90;;;8.84;96.00;98894.94;5044449;28;20481;-72
2022/10/27 06:11:26;;;;;;;13.10;8.53;;;8.80;99.90;;;8.88;97.65;98905.19;5046062;28;20468;-72
2022/10/27 06:13:53;;;;;;;16.70;8.57;;;8.80;99.90;;;8.46;97.29;98840.03;5045311;28;20470;-70
2022/10/27 06:16:21;;;;;;;14.23;9.40;;;8.90;99.90;;;8.46;96.48;98850.81;5046027;28;20461;-71
2022/10/27 06:18:50;;;;;;;9.90;8.77;;;8.80;99.90;;;8.67;97.18;98905.88;5045269;28;20578;-73
2022/10/27 06:21:17;;;;;;;12.80;9.70;;;8.80;99.90;;;8.78;97.23;98918.06;5049060;28;20469;-72
2022/10/27 06:23:44;;;;;;;12.17;9.17;;;8.80;99.90;;;8.79;96.97;98911.66;5043835;28;20542;-72
2022/10/27 06:26:12;;;;;;;12.30;9.50;;;8.80;99.90;;;8.91;96.65;98929.06;5041248;28;20493;-70
2022/10/27 06:28:39;;;;;;;10.40;9.30;;;8.90;99.90;;;8.80;96.76;98929.53;5038148;28;20970;-71
2022/10/27 06:31:06;;;;;;;10.30;8.67;;;8.80;99.90;;;8.86;96.31;98930.63;5063413;28;20454;-72
2022/10/27 06:33:33;;;;;;;10.47;9.57;;;8.90;99.90;;;9.00;97.04;98926.31;5040792;28;20535;-69
2022/10/27 06:36:01;;;;;;;10.83;9.60;;;8.90;99.90;;;9.11;95.54;98922.31;5043740;28;20465;-70
2022/10/27 06:38:29;;;;;;;10.40;8.80;;;9.00;99.90;;;9.09;95.26;98914.41;5047948;28;20464;-71
2022/10/27 06:40:56;;;;;;;14.40;9.87;;;9.00;99.90;;;8.13;95.17;98772.16;5044572;28;20509;-69
2022/10/27 06:43:23;;;;;;;11.73;9.53;;;9.00;99.90;;;9.03;95.71;98931.34;5046910;28;20466;-69
2022/10/27 06:45:51;;;;;;;14.80;9.70;;;9.10;99.90;;;9.04;96.22;98924.91;5045753;28;20513;-70
2022/10/27 06:48:18;;;;;;;19.03;10.43;;;9.10;99.90;;;9.16;96.05;98946.88;5040859;28;22504;-70
2022/10/27 06:50:45;;;;;;;13.13;10.10;;;9.10;99.90;;;9.16;96.40;98941.47;5046410;28;20456;-69
2022/10/27 06:53:14;;;;;;;25.20;11.80;;;9.20;99.90;;;9.09;96.49;98940.53;5042579;28;20464;-70
2022/10/27 06:55:42;;;;;;;12.97;10.60;;;9.20;99.90;;;8.56;97.31;98892.81;5047107;28;21010;-69
2022/10/27 06:58:09;;;;;;;13.10;11.70;;;9.10;99.90;;;8.92;97.73;98948.78;5039552;28;20462;-70
2022/10/27 07:00:37;;;;;;;17.33;12.23;;;9.10;99.90;;;9.10;97.93;98947.59;5024208;28;20459;-68
2022/10/27 07:03:08;;;;;;;15.97;11.60;;;9.20;99.90;;;9.27;96.95;98956.38;5056517;28;20461;-69
2022/10/27 07:05:38;;;;;;;14.10;11.30;;;9.30;99.90;;;9.38;96.89;98955.09;5043978;28;20474;-69
2022/10/27 07:08:05;;;;;;;14.10;11.40;;;9.40;99.90;;;9.47;96.29;98953.97;5039998;28;21116;-68
2022/10/27 07:10:34;;;;;;;15.50;11.80;;;9.40;99.90;;;9.54;96.51;98949.53;5043224;28;20455;-69
2022/10/27 07:13:02;;;;;;;15.57;10.87;;;9.50;99.90;;;9.68;95.68;98957.81;5041006;28;20481;-67
2022/10/27 07:15:32;;;;;;;11.70;9.60;;;9.60;99.90;;;9.73;95.67;98963.47;5042655;28;20471;-68
2022/10/27 07:18:01;;;;;;;17.73;10.07;;;9.70;99.90;;;9.84;96.08;98954.91;5044538;28;21007;-68
2022/10/27 07:20:30;;;;;;;10.63;9.53;;;9.80;99.90;;;10.00;96.46;98958.41;5041244;28;20578;-68
2022/10/27 07:22:58;;;;;;;13.57;10.50;;;9.80;99.90;;;9.68;95.55;98899.25;5047015;28;20460;-68
2022/10/27 07:25:27;;;;;;;17.80;10.00;;;9.90;99.90;;;9.83;95.80;98923.53;5051453;28;20473;-70
2022/10/27 07:27:57;;;;;;;11.07;9.97;;;10.00;99.90;;;10.13;95.18;98966.69;5044176;28;20469;-70
2022/10/27 07:30:27;;;;;;;14.10;9.90;;;10.10;99.90;;;10.12;95.91;98959.63;5038299;28;20476;-68
2022/10/27 07:32:55;;;;;;;16.57;11.30;;;10.10;99.90;;;10.29;95.80;98967.50;5043337;28;20955;-68
2022/10/27 07:35:22;;;;;;;18.70;11.40;;;10.20;99.90;;;10.32;95.95;98956.28;5042529;28;20466;-70
2022/10/27 07:37:50;;;;;;;14.60;11.40;;;10.30;99.90;;;10.42;95.43;98954.16;5043762;28;20596;-69
2022/10/27 07:40:21;;;;;;;14.27;11.17;;;10.40;99.90;;;10.61;95.49;98960.81;5046952;28;20489;-68
2022/10/27 07:42:50;;;;;;;17.10;13.33;;;10.50;99.90;;;10.79;94.90;98955.97;5041309;28;20610;-69
2022/10/27 07:45:21;;;;;;;13.83;11.00;;;10.70;99.90;;;10.87;94.63;98942.31;5035596;28;20531;-70
2022/10/27 07:47:50;;;;;;;13.37;11.93;;;10.80;99.90;;;11.13;94.23;98957.06;5045920;28;20491;-68
2022/10/27 07:50:18;;;;;;;15.07;11.30;;;10.90;99.90;;;11.06;94.38;98954.31;5041979;28;20456;-69
2022/10/27 07:52:49;;;;;;;16.57;11.63;;;11.00;99.90;;;11.11;94.89;98956.44;5045126;28;20980;-68
2022/10/27 07:55:19;;;;;;;13.07;11.53;;;11.10;99.90;;;11.25;94.46;98960.09;5043378;28;20452;-71
2022/10/27 07:57:47;;;;;;;12.57;11.37;;;11.20;99.90;;;11.53;93.57;98957.38;5036121;28;20466;-68
2022/10/27 08:00:16;;;;;;;15.43;12.83;;;11.30;99.90;;;11.56;94.20;98964.25;5046037;28;20492;-70
2022/10/27 08:02:45;;;;;;;15.40;11.80;;;11.40;99.90;;;11.54;94.17;98958.22;5041125;28;20456;-69
2022/10/27 08:05:12;;;;;;;15.40;11.03;;;11.50;99.90;;;11.75;93.41;98960.81;5037097;28;20482;-69
2022/10/27 08:07:39;;;;;;;11.53;10.33;;;11.60;99.90;;;11.69;93.13;98956.22;5041845;28;20876;-71
2022/10/27 08:10:08;;;;;;;14.00;11.20;;;11.70;99.90;;;12.03;93.37;98969.94;5041417;28;20454;-69
2022/10/27 08:12:40;;;;;;;12.30;11.10;;;11.80;99.90;;;12.05;93.19;98959.72;5039643;28;20461;-67
2022/10/27 08:15:08;;;;;;;11.83;10.53;;;11.90;99.90;;;12.02;92.47;98965.56;5038550;28;20451;-68
2022/10/27 08:17:36;;;;;;;13.67;12.13;;;12.00;99.90;;;12.11;93.00;98956.22;5041915;28;20485;-69
2022/10/27 08:20:05;;;;;;;12.63;11.30;;;12.10;99.90;;;12.30;92.22;98945.66;5035106;28;20573;-67
2022/10/27 08:22:33;;;;;;;12.93;10.83;;;12.30;99.90;;;12.35;92.99;98959.41;5043001;28;20462;-68
2022/10/27 08:25:00;;;;;;;17.10;10.93;;;12.30;99.90;;;12.48;91.25;98945.09;5038348;28;20456;-69
2022/10/27 08:27:27;;;;;;;14.83;11.17;;;12.50;99.90;;;12.62;92.12;98956.78;5041408;28;20965;-68
2022/10/27 08:29:55;;;;;;;13.63;11.07;;;12.60;99.90;;;12.80;91.30;98955.34;5046688;28;20473;-69
2022/10/27 08:32:22;;;;;;;13.60;11.77;;;12.70;99.90;;;12.99;91.07;98954.53;5039610;28;20543;-69
2022/10/27 08:34:50;;;;;;;13.67;10.63;;;12.90;99.90;;;13.17;90.05;98950.34;5042740;28;20468;-69
2022/10/27 08:37:18;;;;;;;12.43;11.20;;;13.00;99.90;;;13.19;90.08;98959.13;5046555;28;20464;-69
2022/10/27 08:39:45;;;;;;;17.03;12.30;;;13.10;99.90;;;13.54;88.75;98955.34;5044846;28;20462;-68
2022/10/27 08:42:26;;;;;;;19.60;11.40;;;13.20;99.90;;;13.77;88.34;98954.03;5038255;28;20471;-67
2022/10/27 08:44:57;;;;;;;12.20;10.40;;;13.40;99.90;;;13.73;87.86;98945.50;5039259;28;20487;-67
2022/10/27 08:47:26;;;;;;;12.17;11.00;;;13.50;99.90;;;13.74;88.28;98944.47;5040487;28;20555;-67
2022/10/27 08:49:58;;;;;;;13.00;11.67;;;13.60;99.90;;;13.91;87.51;98947.50;5043216;28;20521;-68
2022/10/27 08:52:34;;;;;;;15.20;11.30;;;13.70;99.90;;;14.02;87.27;98943.28;5045899;28;20960;-67
2022/10/27 08:55:21;;;;;;;12.30;11.00;;;13.90;99.90;;;14.15;86.54;98945.94;5041329;28;20459;-68
2022/10/27 08:57:57;;;;;;;14.57;10.70;;;14.00;99.90;;;14.48;86.34;98940.56;5042024;28;20550;-68
2022/10/27 09:00:24;;;;;;;12.90;10.90;;;14.20;99.90;;;14.65;86.51;98938.16;5042148;28;20511;-68
2022/10/27 09:03:43;;;;;;;13.37;10.17;;;14.30;99.90;;;14.76;85.43;98942.06;5039849;28;20470;-71
2022/10/27 09:06:18;;;;;;;11.60;10.20;;;14.50;99.00;;;14.77;85.38;98932.88;5034355;28;20590;-68
2022/10/27 09:08:55;;;;;;;13.83;9.60;;;14.60;98.10;;;14.92;84.93;98922.50;5042659;28;20460;-68
2022/10/27 09:11:32;;;;;;;16.50;11.53;;;14.70;98.10;;;15.21;84.65;98931.03;5039771;28;20450;-66
2022/10/27 09:14:32;;;;;;;16.30;12.77;;;14.90;99.50;;;15.27;84.05;98924.72;5033042;28;20482;-68
2022/10/27 09:17:07;;;;;;;20.83;10.53;;;15.10;97.20;;;15.58;83.74;98933.84;5041348;28;20460;-68
2022/10/27 09:19:40;;;;;;;13.60;9.80;;;15.30;97.10;;;15.64;82.89;98933.97;5039863;28;20468;-69
2022/10/27 09:22:15;;;;;;;14.43;9.47;;;15.30;97.10;;;15.79;82.21;98923.53;5041857;28;20466;-67
2022/10/27 09:24:44;;;;;;;10.33;9.33;;;15.50;95.70;;;16.04;82.07;98922.66;5043451;28;20522;-68
2022/10/27 09:27:13;;;;;;;11.10;9.20;;;15.70;96.00;;;15.93;81.79;98921.53;5060929;28;20564;-68
2022/10/27 09:29:42;;;;;;;14.73;9.13;;;15.70;95.20;;;16.25;80.57;98923.22;5046217;28;20464;-68
2022/10/27 09:32:20;;;;;;;10.80;8.30;;;15.90;94.70;;;16.24;80.22;98924.28;5045041;28;20467;-68
2022/10/27 09:34:53;;;;;;;9.30;8.30;;;16.00;93.90;;;16.21;80.55;98922.00;5045325;28;20476;-68
2022/10/27 09:37:21;;;;;;;13.20;9.40;;;16.10;93.70;;;16.36;80.34;98919.69;5041618;28;20839;-68
2022/10/27 09:39:51;;;;;;;11.70;7.67;;;16.20;93.80;;;16.73;79.46;98917.91;5049364;28;20511;-68
2022/10/27 09:42:20;;;;;;;9.33;7.20;;;16.30;93.90;;;16.69;79.02;98921.09;5039388;28;20528;-68
2022/10/27 09:44:54;;;;;;;11.13;7.80;;;16.40;93.40;;;16.81;78.08;98914.84;5048049;28;20456;-67
2022/10/27 09:47:24;;;;;;;8.10;6.47;;;16.60;93.00;;;16.98;77.32;98910.38;5044777;28;21081;-69
2022/10/27 09:49:53;;;;;;;8.73;6.50;;;16.70;92.70;;;17.08;77.33;98926.19;5046964;28;20472;-69
2022/10/27 09:52:25;;;;;;;9.30;5.60;;;16.80;92.40;;;17.40;76.26;98927.75;5044387;28;20466;-67
2022/10/27 09:54:57;;;;;;;9.13;5.87;;;16.90;92.50;;;17.44;76.48;98914.41;5056224;28;21000;-67
2022/10/27 09:57:28;;;;;;;8.33;6.23;;;17.00;92.60;;;17.59;75.55;98922.16;5038002;28;21194;-67
2022/10/27 10:00:00;;;;;;;8.40;4.70;;;17.20;91.80;;;17.51;74.50;98913.22;5038445;28;20469;-67
2022/10/27 10:02:31;;;;;;;6.60;4.87;;;17.30;91.30;;;17.65;73.68;98923.91;5042293;28;20460;-67
2022/10/27 10:04:59;;;;;;;9.23;5.20;;;17.40;90.70;;;17.53;73.06;98878.34;5046289;28;20572;-67
2022/10/27 10:07:35;;;;;;;5.90;4.57;;;17.50;90.60;;;17.56;73.04;98880.56;5037352;28;21191;-68
2022/10/27 10:10:19;;;;;;;6.17;5.00;;;17.60;90.60;;;17.83;72.81;98912.84;5051990;28;20452;-67
2022/10/27 10:12:47;;;;;;;7.13;4.83;;;17.60;90.30;;;17.75;72.31;98869.47;5039295;28;20473;-67
2022/10/27 10:15:18;;;;;;;6.83;3.93;;;17.70;90.30;;;18.29;71.09;98914.88;5036682;28;21016;-67
2022/10/27 10:17:54;;;;;;;6.70;4.60;;;17.80;90.10;;;18.24;71.14;98910.13;5046478;28;20544;-68
2022/10/27 10:20:34;;;;;;;10.77;5.00;;;17.90;89.90;;;18.32;70.99;98906.16;5042547;28;20457;-68
2022/10/27 10:23:03;;;;;;;7.10;4.03;;;18.00;89.60;;;18.32;70.24;98900.69;5042695;28;20460;-68
2022/10/27 10:25:34;;;;;;;6.10;4.50;;;18.10;89.20;;;18.15;71.05;98906.09;5041164;28;20461;-67
2022/10/27 10:28:04;;;;;;;10.77;4.47;;;18.10;89.00;;;18.32;70.27;98892.50;5034537;28;20542;-68
2022/10/27 10:30:36;;;;;;;10.23;4.67;;;18.10;89.10;;;18.44;70.03;98894.34;5049471;28;20605;-67